Time;durP1;ratioP1;P1;durP2;ratioP2;P2;SDS_P1;SDS_P2;PMS_P1;PMS_P2;Temp;Humidity;BMP_temperature;BMP_pressure;BME280_temperature;BME280_humidity;BME280_pressure;Samples;Min_cycle;Max_cycle;Signal;HPM_P1;HPM_P2
2022/07/14 00:02:23;;;;;;;17.60;5.38;;;17.30;99.90;;;;;;5001699;28;25059;-61
2022/07/14 00:04:49;;;;;;;18.27;5.03;;;17.40;99.90;;;;;;4997747;28;25055;-62
2022/07/14 00:07:14;;;;;;;20.33;6.05;;;17.40;99.90;;;;;;4994944;28;25141;-63
2022/07/14 00:09:40;;;;;;;24.52;6.28;;;17.20;99.90;;;;;;4995045;28;25065;-61
2022/07/14 00:12:06;;;;;;;18.08;4.97;;;17.20;99.90;;;;;;4991023;28;25079;-62
2022/07/14 00:14:32;;;;;;;21.10;6.30;;;17.30;99.90;;;;;;4992639;28;25080;-61
2022/07/14 00:16:57;;;;;;;13.65;5.38;;;17.20;99.90;;;;;;4991075;28;25146;-61
2022/07/14 00:19:23;;;;;;;18.75;4.90;;;17.20;99.90;;;;;;4992630;28;25067;-62
2022/07/14 00:21:48;;;;;;;16.25;4.93;;;17.10;99.90;;;;;;4989737;28;25080;-62
2022/07/14 00:24:14;;;;;;;16.33;4.20;;;17.10;99.90;;;;;;4989616;28;25091;-62
2022/07/14 00:26:40;;;;;;;17.38;5.40;;;17.20;99.90;;;;;;4994671;28;25101;-61
2022/07/14 00:29:07;;;;;;;20.08;5.40;;;17.10;99.90;;;;;;5003417;28;25078;-62
2022/07/14 00:31:33;;;;;;;17.95;4.60;;;17.10;99.90;;;;;;4987742;28;25076;-61
2022/07/14 00:34:00;;;;;;;18.65;5.00;;;17.20;99.90;;;;;;4995787;28;25068;-61
2022/07/14 00:36:28;;;;;;;10.23;4.07;;;17.20;99.90;;;;;;4993883;28;25133;-62
2022/07/14 00:38:56;;;;;;;18.27;5.93;;;17.40;99.90;;;;;;4990045;28;25056;-61
2022/07/14 00:41:22;;;;;;;11.23;3.83;;;17.40;99.90;;;;;;4990531;28;25068;-62
2022/07/14 00:43:47;;;;;;;14.75;4.78;;;17.40;99.90;;;;;;4995246;28;25062;-62
2022/07/14 00:46:13;;;;;;;15.82;4.78;;;17.40;99.90;;;;;;4990749;28;25063;-62
2022/07/14 00:48:38;;;;;;;16.08;4.63;;;17.40;99.90;;;;;;4998857;28;25140;-62
2022/07/14 00:51:04;;;;;;;19.00;5.25;;;17.40;99.90;;;;;;4989508;28;25109;-62
2022/07/14 00:53:30;;;;;;;16.63;5.10;;;17.20;99.90;;;;;;4991834;28;25069;-62
2022/07/14 00:55:55;;;;;;;20.13;5.82;;;17.00;99.90;;;;;;4998211;28;25057;-62
2022/07/14 00:58:21;;;;;;;20.70;4.97;;;17.00;99.90;;;;;;4988114;28;25049;-63
2022/07/14 01:00:47;;;;;;;16.17;4.70;;;17.10;99.90;;;;;;4995132;28;25147;-63
2022/07/14 01:03:13;;;;;;;16.40;4.95;;;17.00;99.90;;;;;;4988154;28;25096;-61
2022/07/14 01:05:39;;;;;;;20.25;4.30;;;16.90;99.90;;;;;;4990605;28;25144;-62
2022/07/14 01:08:05;;;;;;;18.08;4.45;;;16.90;99.90;;;;;;4999499;28;25109;-62
2022/07/14 01:10:30;;;;;;;18.05;4.82;;;16.90;99.90;;;;;;5000519;28;25163;-62
2022/07/14 01:12:59;;;;;;;13.00;3.40;;;16.90;99.90;;;;;;4996605;28;25110;-62
2022/07/14 01:15:25;;;;;;;14.57;4.57;;;16.90;99.90;;;;;;4994387;28;25064;-63
2022/07/14 01:17:51;;;;;;;16.00;3.53;;;17.00;99.90;;;;;;5001220;28;25064;-63
2022/07/14 01:20:18;;;;;;;14.77;4.00;;;16.90;99.90;;;;;;4995719;28;25148;-62
2022/07/14 01:22:46;;;;;;;13.98;3.47;;;16.90;99.90;;;;;;5001582;28;25055;-63
2022/07/14 01:25:13;;;;;;;12.25;3.63;;;17.00;99.90;;;;;;4991035;28;25061;-62
2022/07/14 01:27:38;;;;;;;16.80;3.65;;;16.90;99.90;;;;;;4998097;28;25098;-62
2022/07/14 01:30:05;;;;;;;14.77;4.00;;;16.80;99.90;;;;;;4993829;28;25097;-63
2022/07/14 01:32:31;;;;;;;12.68;3.88;;;17.00;99.90;;;;;;4986846;28;25067;-62
2022/07/14 01:34:56;;;;;;;20.58;4.53;;;16.80;99.90;;;;;;4994796;28;25054;-62
2022/07/14 01:37:22;;;;;;;17.25;4.28;;;16.80;99.90;;;;;;4982464;28;25057;-62
2022/07/14 01:39:48;;;;;;;7.65;3.22;;;16.80;99.90;;;;;;4984843;28;25079;-62
2022/07/14 01:42:13;;;;;;;10.07;2.97;;;16.80;99.90;;;;;;4987702;28;25150;-64
2022/07/14 01:44:39;;;;;;;10.35;3.30;;;17.00;99.90;;;;;;4997205;28;25061;-62
2022/07/14 01:47:05;;;;;;;14.05;3.60;;;17.10;99.90;;;;;;4995532;28;25139;-63
2022/07/14 01:49:30;;;;;;;9.48;3.58;;;17.00;99.90;;;;;;4987854;28;25059;-62
2022/07/14 01:51:56;;;;;;;10.30;3.42;;;17.00;99.90;;;;;;4989521;28;25080;-62
2022/07/14 01:54:24;;;;;;;9.32;3.47;;;16.90;99.90;;;;;;4992229;28;25065;-63
2022/07/14 01:56:50;;;;;;;15.50;3.50;;;16.80;99.90;;;;;;4994238;28;25063;-63
2022/07/14 01:59:15;;;;;;;17.35;3.90;;;16.80;99.90;;;;;;4999129;28;25063;-63
2022/07/14 02:01:41;;;;;;;14.48;3.42;;;16.80;99.90;;;;;;4998816;28;25163;-63
2022/07/14 02:04:09;;;;;;;15.05;4.18;;;16.90;99.90;;;;;;4997663;28;25072;-61
2022/07/14 02:06:56;;;;;;;11.13;3.10;;;16.90;99.90;;;;;;4999841;28;25159;-61
2022/07/14 02:09:22;;;;;;;8.05;2.80;;;16.80;99.90;;;;;;4994915;28;25082;-62
2022/07/14 02:14:33;;;;;;;19.90;3.50;;;16.60;99.90;;;;;;4998149;28;25077;-63
2022/07/14 02:16:59;;;;;;;14.18;3.60;;;16.60;99.90;;;;;;4994041;28;25085;-62
2022/07/14 02:19:26;;;;;;;15.25;3.97;;;16.60;99.90;;;;;;4998833;28;25105;-62
2022/07/14 02:21:53;;;;;;;14.52;3.60;;;16.50;99.90;;;;;;4991374;28;25068;-64
2022/07/14 02:24:20;;;;;;;9.93;2.70;;;16.40;99.90;;;;;;4998681;28;25073;-62
2022/07/14 02:26:46;;;;;;;11.27;2.85;;;16.40;99.90;;;;;;4997044;28;25087;-63
2022/07/14 02:29:12;;;;;;;11.55;3.63;;;16.40;99.90;;;;;;4998885;28;25116;-62
2022/07/14 02:31:37;;;;;;;10.98;3.38;;;16.40;99.90;;;;;;4997748;28;25076;-62
2022/07/14 02:34:04;;;;;;;15.10;2.92;;;16.40;99.90;;;;;;5003223;28;25051;-62
2022/07/14 02:36:30;;;;;;;9.05;3.00;;;16.40;99.90;;;;;;4990681;28;25059;-62
2022/07/14 02:38:56;;;;;;;11.88;3.25;;;16.40;99.90;;;;;;4985722;28;25135;-63
2022/07/14 02:41:22;;;;;;;8.43;2.63;;;16.40;99.90;;;;;;4981364;28;25148;-63
2022/07/14 02:43:47;;;;;;;11.50;3.20;;;16.40;99.90;;;;;;4985675;28;25171;-63
2022/07/14 02:46:13;;;;;;;12.25;2.97;;;16.40;99.90;;;;;;4980202;28;25084;-62
2022/07/14 02:48:38;;;;;;;17.08;3.22;;;16.40;99.90;;;;;;4993347;28;25087;-62
2022/07/14 02:51:06;;;;;;;10.60;3.55;;;16.40;99.90;;;;;;5007006;28;25064;-62
2022/07/14 02:53:34;;;;;;;11.35;3.83;;;16.40;99.90;;;;;;4998783;28;25097;-62
2022/07/14 02:56:04;;;;;;;15.02;3.10;;;16.40;99.90;;;;;;4997690;28;25073;-62
2022/07/14 02:58:30;;;;;;;14.23;3.47;;;16.30;99.90;;;;;;4991647;28;25066;-62
2022/07/14 03:00:56;;;;;;;11.70;3.45;;;16.30;99.90;;;;;;4996602;28;25098;-62
2022/07/14 03:03:22;;;;;;;15.93;3.80;;;16.40;99.90;;;;;;4990906;28;25113;-61
2022/07/14 03:05:48;;;;;;;14.57;4.30;;;16.30;99.90;;;;;;4994166;28;25073;-62
2022/07/14 03:08:14;;;;;;;13.23;3.75;;;16.40;99.90;;;;;;4999996;28;25164;-63
2022/07/14 03:10:40;;;;;;;15.88;3.40;;;16.30;99.90;;;;;;4993934;28;25019;-62
2022/07/14 03:13:06;;;;;;;14.32;4.18;;;16.20;99.90;;;;;;5001413;28;25115;-62
2022/07/14 03:15:32;;;;;;;13.82;3.25;;;16.20;99.90;;;;;;5000988;28;25086;-62
2022/07/14 03:17:58;;;;;;;18.70;3.33;;;16.10;99.90;;;;;;5003648;28;25071;-62
2022/07/14 03:20:23;;;;;;;11.88;3.88;;;16.10;99.90;;;;;;5002459;28;25079;-64
2022/07/14 03:22:49;;;;;;;11.55;4.10;;;16.10;99.90;;;;;;5007006;28;25073;-61
2022/07/14 03:25:14;;;;;;;15.35;4.10;;;16.10;99.90;;;;;;4995789;28;25083;-62
2022/07/14 03:27:41;;;;;;;15.40;3.78;;;16.10;99.90;;;;;;5013377;28;25079;-61
2022/07/14 03:30:07;;;;;;;13.73;4.10;;;16.10;99.90;;;;;;4998461;28;25079;-61
2022/07/14 03:32:33;;;;;;;10.98;3.30;;;16.10;99.90;;;;;;4997067;28;25133;-62
2022/07/14 03:35:00;;;;;;;10.18;3.05;;;16.10;99.90;;;;;;5003098;28;25063;-63
2022/07/14 03:37:25;;;;;;;13.85;3.63;;;16.20;99.90;;;;;;4989147;28;25071;-62
2022/07/14 03:39:51;;;;;;;11.93;3.13;;;16.20;99.90;;;;;;5001884;28;25169;-62
2022/07/14 03:42:16;;;;;;;18.55;4.07;;;16.30;99.90;;;;;;5000561;28;25098;-62
2022/07/14 03:44:44;;;;;;;13.82;3.22;;;16.30;99.90;;;;;;4998176;28;25077;-61
2022/07/14 03:47:10;;;;;;;13.45;3.30;;;16.30;99.90;;;;;;5010861;28;25074;-62
2022/07/14 03:49:36;;;;;;;13.77;3.42;;;16.30;99.90;;;;;;5011478;28;25117;-61
2022/07/14 03:52:02;;;;;;;10.10;3.05;;;16.40;99.90;;;;;;5007160;28;25063;-63
2022/07/14 03:54:28;;;;;;;12.63;3.35;;;16.40;99.90;;;;;;4992192;28;25071;-65
2022/07/14 03:56:53;;;;;;;12.43;2.92;;;16.20;99.90;;;;;;4995832;28;25115;-62
2022/07/14 03:59:19;;;;;;;11.45;3.05;;;16.20;99.90;;;;;;4990874;28;25085;-62
2022/07/14 04:01:44;;;;;;;10.48;2.80;;;16.20;99.90;;;;;;4993924;28;25180;-62
2022/07/14 04:04:10;;;;;;;11.27;2.75;;;16.10;99.90;;;;;;4998559;28;25055;-62
2022/07/14 04:06:35;;;;;;;15.13;2.95;;;16.20;99.90;;;;;;4996253;28;25104;-61
2022/07/14 04:09:01;;;;;;;11.00;2.75;;;16.10;99.90;;;;;;5002883;28;25121;-63
2022/07/14 04:11:27;;;;;;;11.05;2.72;;;16.20;99.90;;;;;;5006029;28;25099;-63
2022/07/14 04:13:53;;;;;;;17.05;2.88;;;16.30;99.90;;;;;;4997844;28;25088;-62
2022/07/14 04:16:18;;;;;;;15.02;3.30;;;16.40;99.90;;;;;;4998985;28;25061;-62
2022/07/14 04:18:44;;;;;;;10.13;3.10;;;16.50;99.90;;;;;;4991353;28;25064;-62
2022/07/14 04:21:10;;;;;;;14.32;3.30;;;16.50;99.90;;;;;;5000951;28;25057;-63
2022/07/14 04:23:35;;;;;;;13.20;2.65;;;16.60;99.90;;;;;;5000427;28;25088;-62
2022/07/14 04:26:02;;;;;;;10.23;2.70;;;16.60;99.90;;;;;;4998148;28;25129;-63
2022/07/14 04:28:28;;;;;;;12.57;3.47;;;16.60;99.90;;;;;;4993625;28;25076;-63
2022/07/14 04:30:53;;;;;;;13.40;3.80;;;16.50;99.90;;;;;;5005667;28;25082;-63
2022/07/14 04:33:20;;;;;;;10.13;3.40;;;16.50;99.90;;;;;;4998521;28;25097;-63
2022/07/14 04:35:45;;;;;;;11.25;3.25;;;16.30;99.90;;;;;;4989454;28;25074;-63
2022/07/14 04:38:11;;;;;;;11.15;3.40;;;16.30;99.90;;;;;;4991662;28;25065;-63
2022/07/14 04:40:38;;;;;;;11.35;3.25;;;16.30;99.90;;;;;;4996885;28;25160;-62
2022/07/14 04:43:03;;;;;;;12.30;3.53;;;16.40;99.90;;;;;;4992273;28;25073;-62
2022/07/14 04:45:29;;;;;;;15.90;3.47;;;16.40;99.90;;;;;;4992474;28;25067;-63
2022/07/14 04:47:55;;;;;;;10.18;3.63;;;16.30;99.90;;;;;;5004625;28;25064;-63
2022/07/14 04:53:04;;;;;;;9.88;3.65;;;16.30;99.90;;;;;;4988891;28;25069;-63
2022/07/14 04:55:30;;;;;;;9.15;3.63;;;16.40;99.90;;;;;;4992663;28;25066;-62
2022/07/14 04:57:56;;;;;;;14.82;4.07;;;16.30;99.90;;;;;;4989642;28;25122;-62
2022/07/14 05:00:21;;;;;;;13.93;3.90;;;16.40;99.90;;;;;;4991404;28;25132;-63
2022/07/14 05:02:47;;;;;;;10.98;4.00;;;16.50;99.90;;;;;;4997172;28;25068;-62
2022/07/14 05:05:13;;;;;;;9.95;3.67;;;16.40;99.90;;;;;;5002096;28;25103;-62
2022/07/14 05:07:38;;;;;;;13.65;3.97;;;16.40;99.90;;;;;;4988578;28;25077;-64
2022/07/14 05:10:05;;;;;;;15.73;4.00;;;16.40;99.90;;;;;;5003025;28;25062;-62
2022/07/14 05:12:31;;;;;;;15.85;3.22;;;16.40;99.90;;;;;;4991385;28;25120;-61
2022/07/14 05:14:57;;;;;;;6.57;3.15;;;16.20;99.90;;;;;;4999885;28;25068;-62
2022/07/14 05:17:23;;;;;;;14.35;3.35;;;16.10;99.90;;;;;;4993525;28;25080;-62
2022/07/14 05:19:50;;;;;;;8.35;3.20;;;16.20;99.90;;;;;;4989937;28;25080;-62
2022/07/14 05:22:16;;;;;;;8.70;4.07;;;16.30;99.90;;;;;;4991568;28;25070;-62
2022/07/14 05:24:41;;;;;;;12.35;3.70;;;16.30;99.90;;;;;;4995281;28;25067;-62
2022/07/14 05:27:07;;;;;;;12.13;3.80;;;16.40;99.90;;;;;;5000134;28;25064;-63
2022/07/14 05:29:33;;;;;;;11.57;3.15;;;16.50;99.90;;;;;;4994185;28;25074;-62
2022/07/14 05:31:58;;;;;;;6.15;2.78;;;16.50;99.90;;;;;;4996951;28;25059;-63
2022/07/14 05:34:24;;;;;;;8.05;3.10;;;16.60;99.90;;;;;;5000830;28;25066;-63
2022/07/14 05:36:49;;;;;;;9.88;2.50;;;16.60;99.90;;;;;;5004692;28;25163;-63
2022/07/14 05:39:15;;;;;;;15.60;3.55;;;16.60;99.90;;;;;;4998470;28;25100;-63
2022/07/14 05:41:41;;;;;;;15.52;3.90;;;16.80;99.90;;;;;;4991156;28;25139;-64
2022/07/14 05:44:06;;;;;;;9.15;2.95;;;16.90;99.90;;;;;;4983736;28;25060;-63
2022/07/14 05:46:32;;;;;;;12.02;3.17;;;16.90;99.90;;;;;;4983690;28;25069;-63
2022/07/14 05:48:57;;;;;;;11.85;4.05;;;17.00;99.90;;;;;;4994797;28;25082;-62
2022/07/14 05:51:23;;;;;;;14.05;3.97;;;17.10;99.90;;;;;;4990291;28;25084;-63
2022/07/14 05:53:49;;;;;;;10.75;3.67;;;16.90;99.90;;;;;;4990001;28;25059;-63
2022/07/14 05:56:17;;;;;;;12.43;4.13;;;16.90;99.90;;;;;;4985947;28;25081;-63
2022/07/14 05:58:43;;;;;;;12.73;3.60;;;17.00;99.90;;;;;;4986301;28;25074;-63
2022/07/14 06:01:09;;;;;;;12.05;4.40;;;16.90;99.90;;;;;;4983768;28;25151;-62
2022/07/14 06:03:35;;;;;;;12.93;4.05;;;17.00;99.90;;;;;;4980048;28;25146;-62
2022/07/14 06:06:06;;;;;;;10.32;3.47;;;17.00;99.90;;;;;;4982466;28;25170;-61
2022/07/14 06:08:32;;;;;;;14.23;3.80;;;17.10;99.90;;;;;;4979958;28;25114;-66
2022/07/14 06:10:59;;;;;;;12.95;4.05;;;17.30;99.90;;;;;;5000916;28;25068;-61
2022/07/14 06:13:27;;;;;;;14.80;3.47;;;17.50;99.90;;;;;;4982593;28;25074;-62
2022/07/14 06:15:54;;;;;;;16.70;4.60;;;17.50;99.90;;;;;;4981190;28;25159;-63
2022/07/14 06:18:20;;;;;;;14.00;4.70;;;17.40;99.90;;;;;;4992059;28;25149;-62
2022/07/14 06:20:47;;;;;;;12.02;4.05;;;17.70;99.90;;;;;;4996925;28;25078;-62
2022/07/14 06:23:12;;;;;;;11.43;3.65;;;17.80;99.90;;;;;;4999548;28;25196;-62
2022/07/14 06:25:39;;;;;;;16.20;4.13;;;18.10;99.90;;;;;;4997095;28;25110;-63
2022/07/14 06:28:05;;;;;;;11.05;3.70;;;18.00;99.90;;;;;;4998102;28;25126;-61
2022/07/14 06:30:31;;;;;;;14.35;3.85;;;18.10;99.90;;;;;;4999209;28;25046;-62
2022/07/14 06:32:57;;;;;;;17.58;5.00;;;18.40;99.90;;;;;;4991024;28;25045;-62
2022/07/14 06:35:23;;;;;;;23.50;4.88;;;18.50;99.90;;;;;;4996706;28;25055;-62
2022/07/14 06:37:52;;;;;;;98.90;13.13;;;18.30;99.90;;;;;;5000970;28;25056;-63
2022/07/14 06:40:17;;;;;;;34.95;4.97;;;18.40;99.90;;;;;;4998539;28;26185;-62
2022/07/14 06:42:43;;;;;;;26.38;4.60;;;18.80;99.90;;;;;;4991524;28;25268;-62
2022/07/14 06:45:09;;;;;;;292.52;24.88;;;18.80;99.90;;;;;;4987140;28;25062;-63
2022/07/14 06:47:34;;;;;;;150.55;13.93;;;18.60;99.90;;;;;;4984282;28;25069;-63
2022/07/14 06:50:00;;;;;;;521.80;43.92;;;18.30;99.90;;;;;;4986710;28;25055;-63
2022/07/14 06:52:26;;;;;;;682.25;61.65;;;18.50;99.90;;;;;;4992568;28;25084;-63
2022/07/14 06:54:53;;;;;;;27.10;3.75;;;18.50;99.90;;;;;;4992624;28;25071;-64
2022/07/14 06:57:19;;;;;;;11.68;2.97;;;18.60;99.90;;;;;;4992223;28;25128;-63
2022/07/14 06:59:45;;;;;;;10.73;3.63;;;19.00;99.90;;;;;;4980468;28;25079;-64
2022/07/14 07:02:10;;;;;;;9.57;3.08;;;19.50;99.90;;;;;;4987867;28;25071;-62
2022/07/14 07:04:36;;;;;;;15.70;3.35;;;18.70;99.90;;;;;;4981745;28;25078;-62
2022/07/14 07:07:01;;;;;;;9.93;4.20;;;18.60;99.90;;;;;;4989212;28;25072;-63
2022/07/14 07:09:27;;;;;;;13.43;3.67;;;18.50;99.90;;;;;;4990027;28;25109;-63
2022/07/14 07:11:53;;;;;;;11.95;3.15;;;18.40;99.90;;;;;;4996958;28;25076;-63
2022/07/14 07:14:19;;;;;;;12.68;3.30;;;18.50;99.90;;;;;;4987043;28;25086;-63
2022/07/14 07:16:47;;;;;;;11.07;3.33;;;18.70;99.90;;;;;;4987568;28;25084;-62
2022/07/14 07:19:12;;;;;;;11.85;3.85;;;19.00;99.90;;;;;;4980364;28;25058;-62
2022/07/14 07:21:38;;;;;;;14.98;3.08;;;19.10;99.90;;;;;;4981759;28;25059;-62
2022/07/14 07:24:04;;;;;;;9.57;3.22;;;18.90;99.90;;;;;;4986828;28;25056;-63
2022/07/14 07:26:33;;;;;;;14.75;3.70;;;18.70;99.90;;;;;;4985747;28;25073;-63
2022/07/14 07:28:59;;;;;;;14.27;3.50;;;18.90;99.90;;;;;;4983087;28;25096;-63
2022/07/14 07:31:25;;;;;;;12.25;3.33;;;18.90;99.90;;;;;;4980604;28;25156;-63
2022/07/14 07:33:51;;;;;;;9.80;2.58;;;19.20;99.90;;;;;;4982307;28;25047;-62
2022/07/14 07:36:17;;;;;;;16.30;4.00;;;19.40;99.90;;;;;;4983025;28;25108;-62
2022/07/14 07:38:43;;;;;;;13.90;3.25;;;19.50;99.90;;;;;;4985461;28;25100;-64
2022/07/14 07:41:09;;;;;;;12.60;3.28;;;19.50;99.90;;;;;;4986536;28;25051;-64
2022/07/14 07:43:35;;;;;;;9.88;2.58;;;19.50;99.90;;;;;;4986065;28;25056;-63
2022/07/14 07:46:02;;;;;;;11.82;3.17;;;19.70;99.90;;;;;;4982294;28;25056;-64
2022/07/14 07:48:29;;;;;;;9.80;3.25;;;19.70;99.90;;;;;;4986202;28;25068;-64
2022/07/14 07:50:55;;;;;;;16.50;3.10;;;19.50;99.90;;;;;;4984861;28;25191;-63
2022/07/14 07:53:21;;;;;;;14.95;3.47;;;19.70;99.90;;;;;;4995387;28;25070;-64
2022/07/14 07:55:47;;;;;;;15.85;3.03;;;20.20;99.90;;;;;;4988402;28;25104;-63
2022/07/14 07:58:12;;;;;;;12.38;3.15;;;20.30;99.90;;;;;;4992677;28;25109;-63
2022/07/14 08:00:38;;;;;;;17.30;2.97;;;20.50;99.90;;;;;;4999680;28;25106;-63
2022/07/14 08:03:04;;;;;;;15.35;3.15;;;20.30;99.90;;;;;;4994886;28;25054;-63
2022/07/14 08:05:31;;;;;;;17.77;3.00;;;20.80;99.90;;;;;;4991738;28;25086;-64
2022/07/14 08:07:57;;;;;;;9.30;2.35;;;21.20;99.90;;;;;;4996531;28;25090;-63
2022/07/14 08:10:22;;;;;;;15.32;2.83;;;21.70;99.90;;;;;;4998277;28;25098;-64
2022/07/14 08:12:48;;;;;;;12.23;2.55;;;22.10;99.90;;;;;;4997919;28;25078;-63
2022/07/14 08:15:14;;;;;;;13.07;2.55;;;22.40;99.90;;;;;;4996832;28;25090;-64
2022/07/14 08:17:40;;;;;;;9.82;2.58;;;22.30;99.90;;;;;;4991717;28;25061;-64
2022/07/14 08:20:10;;;;;;;9.02;2.22;;;21.90;99.90;;;;;;5001205;28;25127;-64
2022/07/14 08:22:36;;;;;;;12.23;2.80;;;21.80;99.90;;;;;;5000009;28;25092;-65
2022/07/14 08:25:04;;;;;;;6.00;1.90;;;21.90;99.90;;;;;;4993172;28;25094;-64
2022/07/14 08:27:30;;;;;;;9.18;1.80;;;22.00;99.90;;;;;;4996587;28;25103;-65
2022/07/14 08:29:56;;;;;;;6.63;2.05;;;22.00;99.90;;;;;;5004164;28;25092;-64
2022/07/14 08:32:41;;;;;;;7.45;1.63;;;21.70;99.90;;;;;;4997471;28;25140;-63
2022/07/14 08:35:12;;;;;;;5.13;1.48;;;21.00;99.90;;;;;;4998825;28;25058;-63
2022/07/14 08:37:37;;;;;;;10.77;2.30;;;21.00;99.90;;;;;;4990049;28;25091;-63
2022/07/14 08:40:06;;;;;;;8.88;1.92;;;21.40;99.90;;;;;;5000981;28;25074;-64
2022/07/14 08:42:32;;;;;;;7.60;1.95;;;21.90;99.90;;;;;;4995972;28;25131;-64
2022/07/14 08:44:59;;;;;;;7.60;2.33;;;22.20;99.90;;;;;;4992468;28;25164;-64
2022/07/14 08:47:25;;;;;;;7.68;2.22;;;22.80;99.90;;;;;;4990274;28;25126;-63
2022/07/14 08:49:51;;;;;;;8.95;2.03;;;22.70;99.90;;;;;;5002784;28;25073;-64
2022/07/14 08:52:17;;;;;;;10.52;2.90;;;22.30;99.90;;;;;;4996142;28;25102;-63
2022/07/14 08:54:45;;;;;;;7.95;2.58;;;21.40;99.90;;;;;;4990801;28;25159;-63
2022/07/14 08:57:11;;;;;;;11.25;2.42;;;21.20;99.90;;;;;;4987433;28;25112;-63
2022/07/14 08:59:38;;;;;;;7.55;2.65;;;21.40;99.90;;;;;;4996545;28;25095;-62
2022/07/14 09:02:04;;;;;;;8.05;2.03;;;22.00;99.90;;;;;;4993500;28;25056;-63
2022/07/14 09:04:30;;;;;;;7.50;2.15;;;21.60;99.90;;;;;;4993699;28;25098;-64
2022/07/14 09:06:56;;;;;;;12.50;2.40;;;22.10;99.90;;;;;;4999009;28;25124;-63
2022/07/14 09:09:25;;;;;;;5.60;1.63;;;21.60;99.90;;;;;;4993234;28;25187;-64
2022/07/14 09:11:53;;;;;;;8.02;1.35;;;21.80;99.90;;;;;;4995398;28;25096;-64
2022/07/14 09:14:19;;;;;;;7.60;1.90;;;21.90;99.90;;;;;;4996391;28;25077;-64
2022/07/14 09:16:45;;;;;;;6.75;2.03;;;22.10;99.90;;;;;;5003745;28;25067;-63
2022/07/14 09:19:13;;;;;;;3.90;1.15;;;21.80;99.90;;;;;;4996418;28;25066;-64
2022/07/14 09:21:43;;;;;;;6.13;1.60;;;22.30;99.90;;;;;;5000496;28;25059;-64
2022/07/14 09:24:10;;;;;;;7.63;1.73;;;22.20;99.90;;;;;;4992211;28;25165;-64
2022/07/14 09:26:45;;;;;;;8.85;1.77;;;22.00;99.90;;;;;;4994758;28;25071;-65
2022/07/14 09:29:17;;;;;;;5.80;1.25;;;22.10;99.90;;;;;;4995310;28;25074;-65
2022/07/14 09:31:43;;;;;;;6.63;1.90;;;22.30;98.00;;;;;;4996734;28;25056;-63
2022/07/14 09:34:22;;;;;;;9.23;2.10;;;22.00;95.30;;;;;;4982425;28;25067;-63
2022/07/14 09:36:49;;;;;;;8.25;1.95;;;22.50;99.90;;;;;;4991863;28;25141;-64
2022/07/14 09:39:15;;;;;;;6.90;1.95;;;22.70;99.90;;;;;;4996024;28;25109;-64
2022/07/14 09:41:53;;;;;;;7.78;2.13;;;23.00;99.90;;;;;;4993456;28;25081;-63
2022/07/14 09:44:19;;;;;;;6.63;1.85;;;22.80;99.60;;;;;;4999247;28;25073;-63
2022/07/14 09:46:46;;;;;;;3.50;1.70;;;22.30;99.90;;;;;;4992474;28;25165;-65
2022/07/14 09:49:13;;;;;;;3.47;1.40;;;22.40;99.90;;;;;;4998399;28;25081;-65
2022/07/14 09:51:53;;;;;;;5.85;1.80;;;22.40;99.90;;;;;;4995469;28;25052;-64
2022/07/14 09:54:37;;;;;;;8.75;1.90;;;22.40;99.90;;;;;;4993061;28;25068;-63
2022/07/14 09:57:26;;;;;;;6.68;2.10;;;22.30;99.90;;;;;;4984838;28;25100;-63
2022/07/14 10:00:12;;;;;;;6.25;2.08;;;22.30;99.90;;;;;;5001507;28;25052;-63
2022/07/14 10:02:40;;;;;;;6.60;2.13;;;21.90;99.90;;;;;;4997145;28;25140;-63
2022/07/14 10:05:09;;;;;;;5.95;2.10;;;22.20;99.90;;;;;;5000696;28;25064;-64
2022/07/14 10:07:36;;;;;;;6.00;1.88;;;22.50;99.90;;;;;;5003529;28;25074;-64
2022/07/14 10:10:10;;;;;;;5.85;1.98;;;23.00;99.90;;;;;;5014780;28;25070;-64
2022/07/14 10:12:38;;;;;;;7.30;1.98;;;23.80;99.90;;;;;;5007286;28;25069;-65
2022/07/14 10:15:07;;;;;;;6.15;1.63;;;24.30;95.60;;;;;;5006377;28;25085;-62
2022/07/14 10:17:35;;;;;;;6.18;1.58;;;24.30;88.50;;;;;;5004862;28;25060;-64
2022/07/14 10:20:01;;;;;;;7.07;1.45;;;24.10;84.20;;;;;;5003433;28;25097;-64
2022/07/14 10:22:28;;;;;;;7.07;1.85;;;23.80;84.00;;;;;;4990698;28;25072;-63
2022/07/14 10:24:54;;;;;;;5.28;1.65;;;24.00;86.50;;;;;;4983025;28;25095;-64
2022/07/14 10:27:20;;;;;;;5.07;1.58;;;24.10;90.80;;;;;;4996651;28;25071;-62
2022/07/14 10:29:50;;;;;;;7.65;1.50;;;24.00;81.50;;;;;;5001463;28;25085;-65
2022/07/14 10:32:43;;;;;;;2.45;1.17;;;23.80;81.80;;;;;;5002618;28;25064;-64
2022/07/14 10:35:48;;;;;;;5.97;1.27;;;24.00;76.90;;;;;;4998666;28;25054;-64
2022/07/14 10:38:30;;;;;;;6.57;1.38;;;23.60;77.30;;;;;;4996675;28;25081;-64
2022/07/14 10:41:19;;;;;;;6.90;1.70;;;23.60;71.90;;;;;;4985530;28;25093;-64
2022/07/14 10:43:56;;;;;;;10.00;2.10;;;23.70;86.40;;;;;;4994245;28;25077;-63
2022/07/14 10:46:39;;;;;;;3.15;0.98;;;24.50;78.10;;;;;;4994919;28;25093;-66
2022/07/14 10:49:07;;;;;;;3.33;1.20;;;24.70;58.50;;;;;;4986888;28;25063;-64
2022/07/14 10:51:33;;;;;;;6.80;1.30;;;25.00;41.50;;;;;;4990044;28;25098;-63
2022/07/14 10:54:08;;;;;;;5.47;1.40;;;24.40;43.90;;;;;;5003657;28;25079;-64
2022/07/14 10:56:36;;;;;;;4.35;1.38;;;23.70;53.50;;;;;;4990816;28;25057;-65
2022/07/14 10:59:26;;;;;;;14.10;1.30;;;24.00;66.20;;;;;;4993799;28;25080;-65
2022/07/14 11:02:11;;;;;;;5.45;1.30;;;24.80;50.60;;;;;;4998702;28;25101;-64
2022/07/14 11:07:52;;;;;;;6.32;1.50;;;24.70;35.70;;;;;;4992969;28;25071;-64
2022/07/14 11:10:18;;;;;;;6.97;1.30;;;24.00;54.00;;;;;;4999094;28;25050;-64
2022/07/14 11:12:59;;;;;;;6.50;1.27;;;24.30;53.80;;;;;;4994336;28;25074;-64
2022/07/14 11:15:40;;;;;;;6.40;1.33;;;24.60;53.30;;;;;;5007374;28;25096;-64
2022/07/14 11:18:17;;;;;;;7.80;2.72;;;24.80;49.80;;;;;;4999161;28;25052;-64
2022/07/14 11:21:05;;;;;;;5.28;1.60;;;24.30;50.00;;;;;;4997603;28;25057;-65
2022/07/14 11:23:55;;;;;;;6.55;2.13;;;24.40;60.90;;;;;;5003763;28;25073;-64
2022/07/14 11:26:37;;;;;;;3.63;1.45;;;24.60;60.60;;;;;;4992230;28;25059;-64
2022/07/14 11:29:12;;;;;;;6.88;2.05;;;24.30;63.60;;;;;;5001592;28;25139;-64
2022/07/14 11:31:52;;;;;;;3.65;1.73;;;24.10;68.20;;;;;;5001831;28;25075;-64
2022/07/14 11:37:07;;;;;;;7.28;1.90;;;24.60;63.30;;;;;;4995112;28;25063;-64
2022/07/14 11:39:34;;;;;;;7.10;2.05;;;23.60;61.60;;;;;;5002976;28;25140;-65
2022/07/14 11:42:01;;;;;;;7.15;1.80;;;23.90;69.50;;;;;;4992830;28;25081;-66
2022/07/14 11:44:36;;;;;;;9.30;1.25;;;24.10;69.90;;;;;;4995080;28;25066;-65
2022/07/14 11:47:21;;;;;;;4.70;1.58;;;24.70;62.40;;;;;;4993591;28;25063;-65
2022/07/14 11:49:52;;;;;;;7.25;1.80;;;24.30;54.50;;;;;;5001581;28;25061;-64
2022/07/14 11:52:25;;;;;;;4.03;1.40;;;24.10;55.60;;;;;;4999353;28;25085;-63
2022/07/14 11:54:56;;;;;;;8.45;1.65;;;23.80;62.40;;;;;;4991439;28;25320;-65
2022/07/14 11:57:22;;;;;;;6.88;1.35;;;23.70;55.80;;;;;;4998819;28;25065;-64
2022/07/14 11:59:48;;;;;;;6.18;1.50;;;24.00;58.60;;;;;;4997021;28;25068;-64
2022/07/14 12:02:18;;;;;;;3.65;1.20;;;24.20;43.40;;;;;;5000224;28;25476;-64
2022/07/14 12:05:10;;;;;;;5.50;1.52;;;24.20;32.50;;;;;;4986433;28;25125;-65
2022/07/14 12:07:46;;;;;;;6.55;1.83;;;24.20;27.00;;;;;;4987472;28;25064;-63
2022/07/14 12:10:13;;;;;;;5.30;1.50;;;24.40;29.00;;;;;;5002787;28;25069;-63
2022/07/14 12:12:41;;;;;;;4.15;1.60;;;23.70;33.60;;;;;;4998041;28;25049;-63
2022/07/14 12:15:08;;;;;;;7.80;1.73;;;23.30;44.10;;;;;;4996656;28;25066;-63
2022/07/14 12:17:49;;;;;;;7.85;1.60;;;23.20;54.70;;;;;;4989510;28;25069;-64
2022/07/14 12:20:15;;;;;;;5.35;1.73;;;23.10;55.70;;;;;;5001003;28;25071;-64
2022/07/14 12:22:45;;;;;;;10.40;1.88;;;23.10;59.40;;;;;;5001300;28;25082;-63
2022/07/14 12:25:31;;;;;;;6.18;1.80;;;22.90;64.70;;;;;;4993945;28;25051;-65
2022/07/14 12:27:59;;;;;;;8.15;1.70;;;23.40;64.90;;;;;;4987564;28;25078;-64
2022/07/14 12:30:24;;;;;;;7.32;1.83;;;23.10;63.60;;;;;;5002664;28;25063;-64
2022/07/14 12:32:55;;;;;;;5.45;1.80;;;22.90;68.50;;;;;;4997546;28;25070;-64
2022/07/14 12:35:22;;;;;;;6.90;1.70;;;22.70;72.10;;;;;;4997804;28;25161;-64
2022/07/14 12:37:50;;;;;;;8.07;2.50;;;22.70;78.10;;;;;;4990173;28;25051;-64
2022/07/14 12:40:17;;;;;;;12.77;1.90;;;22.90;80.40;;;;;;4994934;28;25145;-64
2022/07/14 12:42:43;;;;;;;9.90;2.22;;;22.90;81.50;;;;;;5003030;28;25104;-67
2022/07/14 12:45:09;;;;;;;6.75;1.40;;;23.30;83.20;;;;;;4989482;28;25055;-65
2022/07/14 12:47:52;;;;;;;4.43;1.95;;;23.90;81.80;;;;;;4983923;28;25054;-65
2022/07/14 12:50:25;;;;;;;5.43;1.77;;;24.20;70.80;;;;;;4990636;28;25069;-64
2022/07/14 12:52:57;;;;;;;6.32;1.67;;;24.10;67.90;;;;;;4998067;28;25164;-65
2022/07/14 12:55:37;;;;;;;5.40;1.25;;;23.40;74.20;;;;;;4997083;28;25113;-65
2022/07/14 12:58:07;;;;;;;5.07;1.35;;;23.20;78.70;;;;;;4985834;28;25067;-64